Laings, Ohio
Current Conditions -  °F | °C
As of 1:02 AM on Friday 19 Dec 2014 (Local Time) from KPKB Reporting Station
Overcast Overcast  
Wind Chill: 23°   Ceiling: 2000
Heat Index: 28°   Visibility: 10mi
Dew Point: 21°   Wind: 5mph
Humidity: 75%   Direction: 260°W
Pressure: 30.23"   Gusts: NA
Location:  39.72°N, 81.01°W
Report Text: KPKB 190602Z AUTO 26004KT 10SM BKN020 BKN065 OVC110 M02/M06 A3023 RMK AO2 T10221061
Loading
Personal Weather Stations






























Interactive Weather Map New forecast layout! Learn more

10-Day Weather Forecast

Advertisements
Track Severe Weather on mobile